Return to the overview of this dataset or to the list of all FOR816 datasets.


Value filter for entity: Microclimate(id: 445) of dataset: Forest microclimate ECSF tree T117b understorey (z1) (dsid: 662)

Select attribute to work with:



Order by

Aggregate by date/time

on attribute:

Draw graph of subset

    x     y1     y2  
     
Ta_2m (air temperature in 2m)
Huma_2m (Air humidity 2m)
datetime (Date and Time)

Results:

page: 1 / 17 , page size: , max results: 814

Ta_2m Huma_2m datetime
16.0 103.9 2004-10-03 18:00:00
15.78 103.9 2004-10-03 18:30:00
15.57 103.9 2004-10-03 19:00:00
15.45 103.9 2004-10-03 19:30:00
15.33 103.9 2004-10-03 20:00:00
15.23 103.9 2004-10-03 20:30:00
15.16 103.9 2004-10-03 21:00:00
15.11 103.9 2004-10-03 21:30:00
15.09 103.9 2004-10-03 22:00:00
15.07 103.9 2004-10-03 22:30:00
15.07 103.9 2004-10-03 23:00:00
14.97 103.9 2004-10-03 23:30:00
14.97 103.9 2004-10-04 00:00:00
14.97 103.9 2004-10-04 00:30:00
14.95 103.9 2004-10-04 01:00:00
14.92 103.9 2004-10-04 01:30:00
14.87 103.9 2004-10-04 02:00:00
14.85 103.9 2004-10-04 02:30:00
14.8 103.9 2004-10-04 03:00:00
14.68 103.9 2004-10-04 03:30:00
14.73 103.9 2004-10-04 04:00:00
14.71 103.9 2004-10-04 04:30:00
14.71 103.9 2004-10-04 05:00:00
14.71 103.9 2004-10-04 05:30:00
14.68 103.9 2004-10-04 06:00:00
14.68 103.9 2004-10-04 06:30:00
14.71 103.9 2004-10-04 07:00:00
14.92 103.9 2004-10-04 07:30:00
15.23 103.9 2004-10-04 08:00:00
15.71 103.9 2004-10-04 08:30:00
16.4 103.9 2004-10-04 09:00:00
16.76 103.9 2004-10-04 09:30:00
17.38 99.8 2004-10-04 10:00:00
17.28 99.5 2004-10-04 10:30:00
17.16 103.9 2004-10-04 11:00:00
18.0 94.4 2004-10-04 11:30:00
18.04 92.9 2004-10-04 12:00:00
19.21 82.6 2004-10-04 12:30:00
18.95 86.6 2004-10-04 13:00:00
18.33 86.6 2004-10-04 13:30:00
17.95 90.9 2004-10-04 14:00:00
18.14 86.6 2004-10-04 14:30:00
17.9 87.9 2004-10-04 15:00:00
17.66 87.5 2004-10-04 15:30:00
16.83 101.1 2004-10-04 16:00:00
16.35 102.7 2004-10-04 16:30:00
16.38 103.9 2004-10-04 17:00:00
16.04 103.9 2004-10-04 17:30:00
15.78 103.9 2004-10-04 18:00:00
15.62 103.9 2004-10-04 18:30:00

page: 1 / 17 , max results: 814


Return to the overview of this dataset or to the list of all FOR816 datasets.



Quick search

  • Publications:
  • Datasets: